Time;durP1;ratioP1;P1;durP2;ratioP2;P2;SDS_P1;SDS_P2;PMS_P1;PMS_P2;Temp;Humidity;BMP_temperature;BMP_pressure;BME280_temperature;BME280_humidity;BME280_pressure;Samples;Min_cycle;Max_cycle;Signal;HPM_P1;HPM_P2
2023/07/12 00:00:53;;;;;;;5.60;2.22;;;;;;;;;;4901774;29;20028;-65
2023/07/12 00:03:19;;;;;;;4.25;1.85;;;;;;;;;;4902438;29;20047;-66
2023/07/12 00:05:47;;;;;;;8.20;2.35;;;;;;;;;;4900957;29;20031;-66
2023/07/12 00:08:20;;;;;;;6.07;1.92;;;;;;;;;;4901958;29;20043;-65
2023/07/12 00:10:46;;;;;;;5.55;2.10;;;;;;;;;;4901809;29;20047;-65
2023/07/12 00:13:12;;;;;;;5.63;2.30;;;;;;;;;;4902307;29;20106;-65
2023/07/12 00:15:39;;;;;;;7.22;2.20;;;;;;;;;;4902079;29;20119;-65
2023/07/12 00:18:12;;;;;;;8.10;2.50;;;;;;;;;;4901124;29;20036;-65
2023/07/12 00:20:38;;;;;;;4.27;2.33;;;;;;;;;;4899646;29;20028;-65
2023/07/12 00:23:04;;;;;;;5.43;2.05;;;;;;;;;;4901610;29;20841;-65
2023/07/12 00:25:31;;;;;;;7.40;2.00;;;;;;;;;;4900237;29;20917;-65
2023/07/12 00:27:57;;;;;;;7.82;2.25;;;;;;;;;;4900458;29;20032;-65
2023/07/12 00:30:26;;;;;;;4.55;2.03;;;;;;;;;;4902477;29;20034;-66
2023/07/12 00:32:53;;;;;;;4.90;2.40;;;;;;;;;;4903080;29;20068;-66
2023/07/12 00:35:21;;;;;;;5.60;2.03;;;;;;;;;;4903034;29;20032;-66
2023/07/12 00:37:48;;;;;;;5.63;2.47;;;;;;;;;;4905287;29;20468;-66
2023/07/12 00:40:22;;;;;;;4.90;2.22;;;;;;;;;;4905931;29;20044;-66
2023/07/12 00:42:51;;;;;;;5.10;2.28;;;;;;;;;;4907808;29;20032;-66
2023/07/12 00:45:17;;;;;;;7.95;2.47;;;;;;;;;;4906776;29;20027;-66
2023/07/12 00:47:44;;;;;;;7.53;2.60;;;;;;;;;;4906525;29;21576;-66
2023/07/12 00:50:20;;;;;;;6.40;2.63;;;;;;;;;;4906744;29;20628;-66
2023/07/12 00:52:46;;;;;;;4.68;2.20;;;;;;;;;;4907296;29;20042;-67
2023/07/12 00:55:35;;;;;;;6.93;2.55;;;;;;;;;;4907994;29;21834;-67
2023/07/12 00:58:01;;;;;;;4.75;2.05;;;;;;;;;;4864008;29;20130;-67
2023/07/12 01:00:27;;;;;;;7.50;3.05;;;;;;;;;;4906664;29;20040;-67
2023/07/12 01:02:53;;;;;;;8.13;3.05;;;;;;;;;;4906141;29;20058;-67
2023/07/12 01:05:20;;;;;;;6.35;2.55;;;;;;;;;;4906453;29;20056;-67
2023/07/12 01:07:46;;;;;;;7.68;2.30;;;;;;;;;;4905456;29;21568;-67
2023/07/12 01:10:12;;;;;;;7.88;2.67;;;;;;;;;;4905338;29;20115;-67
2023/07/12 01:12:38;;;;;;;6.20;2.63;;;;;;;;;;4906315;29;20143;-67
2023/07/12 01:15:05;;;;;;;9.40;3.08;;;;;;;;;;4907580;29;20059;-66
2023/07/12 01:17:31;;;;;;;8.82;2.85;;;;;;;;;;4904113;29;20036;-65
2023/07/12 01:19:57;;;;;;;4.80;2.20;;;;;;;;;;4904624;29;20046;-65
2023/07/12 01:22:24;;;;;;;4.75;2.38;;;;;;;;;;4904906;29;20424;-65
2023/07/12 01:24:50;;;;;;;6.03;2.58;;;;;;;;;;4905403;29;20047;-65
2023/07/12 01:27:18;;;;;;;8.32;2.60;;;;;;;;;;4902839;29;20663;-65
2023/07/12 01:29:45;;;;;;;5.38;2.80;;;;;;;;;;4904849;29;20038;-65
2023/07/12 01:32:12;;;;;;;10.90;2.88;;;;;;;;;;4905235;29;20047;-65
2023/07/12 01:34:38;;;;;;;5.75;2.90;;;;;;;;;;4904413;29;20039;-65
2023/07/12 01:37:05;;;;;;;6.88;3.17;;;;;;;;;;4904015;29;20036;-65
2023/07/12 01:39:32;;;;;;;8.18;3.30;;;;;;;;;;4904787;29;20123;-65
2023/07/12 01:41:58;;;;;;;6.47;2.83;;;;;;;;;;4904961;29;20039;-65
2023/07/12 01:44:24;;;;;;;11.73;3.10;;;;;;;;;;4903985;29;20097;-65
2023/07/12 01:46:50;;;;;;;5.38;2.72;;;;;;;;;;4904146;29;20127;-65
2023/07/12 01:49:16;;;;;;;7.05;2.67;;;;;;;;;;4903383;29;20083;-65
2023/07/12 01:51:42;;;;;;;6.10;2.58;;;;;;;;;;4904054;29;20036;-65
2023/07/12 01:54:08;;;;;;;6.93;2.88;;;;;;;;;;4905054;29;20036;-65
2023/07/12 01:56:34;;;;;;;7.07;2.88;;;;;;;;;;4904109;29;20032;-65
2023/07/12 01:59:00;;;;;;;6.18;2.80;;;;;;;;;;4904291;29;20043;-65
2023/07/12 02:01:26;;;;;;;7.65;3.50;;;;;;;;;;4905009;29;20047;-65
2023/07/12 02:03:52;;;;;;;7.07;2.92;;;;;;;;;;4904163;29;20090;-65
2023/07/12 02:06:18;;;;;;;11.80;3.05;;;;;;;;;;4904202;29;20118;-65
2023/07/12 02:08:45;;;;;;;8.55;3.50;;;;;;;;;;4904062;29;20578;-65
2023/07/12 02:11:11;;;;;;;6.97;3.20;;;;;;;;;;4903942;29;20042;-65
2023/07/12 02:13:37;;;;;;;9.40;3.30;;;;;;;;;;4903982;29;20036;-66
2023/07/12 02:16:03;;;;;;;7.10;3.92;;;;;;;;;;4906252;29;20115;-67
2023/07/12 02:18:29;;;;;;;8.38;3.45;;;;;;;;;;4905912;29;20720;-66
2023/07/12 02:20:55;;;;;;;8.82;3.20;;;;;;;;;;4906962;29;20448;-66
2023/07/12 02:23:21;;;;;;;10.93;3.45;;;;;;;;;;4906217;29;20689;-66
2023/07/12 02:25:48;;;;;;;7.28;3.95;;;;;;;;;;4904070;29;20035;-66
2023/07/12 02:28:14;;;;;;;8.43;3.25;;;;;;;;;;4905227;29;20036;-66
2023/07/12 02:30:42;;;;;;;10.75;3.53;;;;;;;;;;4905813;29;20039;-66
2023/07/12 02:33:08;;;;;;;7.90;3.58;;;;;;;;;;4904705;29;21748;-66
2023/07/12 02:35:34;;;;;;;10.52;3.55;;;;;;;;;;4904666;29;20028;-66
2023/07/12 02:38:01;;;;;;;8.48;4.03;;;;;;;;;;4904126;29;20035;-66
2023/07/12 02:40:28;;;;;;;11.18;3.85;;;;;;;;;;4905615;29;20564;-66
2023/07/12 02:42:54;;;;;;;11.23;3.97;;;;;;;;;;4905901;29;20509;-66
2023/07/12 02:45:20;;;;;;;9.70;4.05;;;;;;;;;;4905959;29;20028;-66
2023/07/12 02:47:46;;;;;;;9.00;3.15;;;;;;;;;;4906266;29;20030;-66
2023/07/12 02:50:12;;;;;;;11.00;3.55;;;;;;;;;;4904518;29;20047;-66
2023/07/12 02:52:38;;;;;;;8.13;3.63;;;;;;;;;;4904675;29;20028;-66
2023/07/12 02:55:05;;;;;;;10.77;3.58;;;;;;;;;;4905709;29;20095;-67
2023/07/12 02:57:31;;;;;;;11.35;3.58;;;;;;;;;;4905255;29;20102;-66
2023/07/12 02:59:57;;;;;;;9.32;3.88;;;;;;;;;;4904766;29;20036;-66
2023/07/12 03:02:23;;;;;;;10.05;3.65;;;;;;;;;;4890073;29;20765;-67
2023/07/12 03:04:49;;;;;;;12.77;3.78;;;;;;;;;;4905091;29;20582;-66
2023/07/12 03:07:15;;;;;;;11.20;3.80;;;;;;;;;;4904905;29;20058;-66
2023/07/12 03:09:41;;;;;;;10.45;3.63;;;;;;;;;;4904014;29;20038;-66
2023/07/12 03:12:07;;;;;;;13.13;3.50;;;;;;;;;;4904140;29;21818;-66
2023/07/12 03:14:33;;;;;;;12.43;4.03;;;;;;;;;;4905350;29;20218;-66
2023/07/12 03:16:59;;;;;;;11.48;3.40;;;;;;;;;;4905833;29;20036;-66
2023/07/12 03:19:26;;;;;;;9.98;3.45;;;;;;;;;;4904292;29;20039;-66
2023/07/12 03:21:52;;;;;;;11.27;3.63;;;;;;;;;;4903529;29;20376;-66
2023/07/12 03:24:18;;;;;;;8.85;3.45;;;;;;;;;;4902885;29;20170;-66
2023/07/12 03:26:44;;;;;;;12.30;3.72;;;;;;;;;;4904142;29;20038;-66
2023/07/12 03:29:10;;;;;;;11.73;3.58;;;;;;;;;;4904812;29;20047;-66
2023/07/12 03:31:36;;;;;;;13.65;3.55;;;;;;;;;;4903394;29;20047;-66
2023/07/12 03:34:02;;;;;;;12.52;4.00;;;;;;;;;;4903016;29;20036;-66
2023/07/12 03:36:28;;;;;;;12.38;4.03;;;;;;;;;;4903456;29;20032;-66
2023/07/12 03:38:55;;;;;;;15.80;3.40;;;;;;;;;;4903772;29;20053;-66
2023/07/12 03:41:21;;;;;;;13.98;3.90;;;;;;;;;;4902528;29;20079;-66
2023/07/12 03:43:48;;;;;;;10.80;3.20;;;;;;;;;;4903650;29;20039;-66
2023/07/12 03:46:14;;;;;;;11.27;3.38;;;;;;;;;;4902887;29;20067;-66
2023/07/12 03:48:40;;;;;;;13.45;4.13;;;;;;;;;;4902591;29;21381;-66
2023/07/12 03:51:07;;;;;;;11.57;3.35;;;;;;;;;;4903603;29;20067;-66
2023/07/12 03:53:33;;;;;;;10.75;3.58;;;;;;;;;;4903011;29;20063;-65
2023/07/12 03:56:01;;;;;;;11.82;3.72;;;;;;;;;;4901897;29;20044;-65
2023/07/12 03:58:28;;;;;;;10.93;3.50;;;;;;;;;;4901781;29;20043;-65
2023/07/12 04:00:54;;;;;;;8.35;2.92;;;;;;;;;;4902479;29;20087;-65
2023/07/12 04:03:20;;;;;;;10.48;3.35;;;;;;;;;;4901855;29;20042;-65
2023/07/12 04:05:49;;;;;;;10.70;3.15;;;;;;;;;;4902303;29;20048;-65
2023/07/12 04:08:15;;;;;;;12.02;3.75;;;;;;;;;;4902585;29;20040;-65
2023/07/12 04:10:41;;;;;;;13.48;3.50;;;;;;;;;;4902800;29;20031;-65
2023/07/12 04:13:07;;;;;;;15.10;4.28;;;;;;;;;;4901113;29;20067;-65
2023/07/12 04:15:35;;;;;;;11.55;3.13;;;;;;;;;;4901736;29;20031;-65
2023/07/12 04:18:02;;;;;;;12.90;3.55;;;;;;;;;;4902202;29;20028;-65
2023/07/12 04:20:28;;;;;;;9.27;2.95;;;;;;;;;;4901935;29;21074;-65
2023/07/12 04:22:54;;;;;;;8.55;3.03;;;;;;;;;;4900954;29;20028;-65
2023/07/12 04:25:20;;;;;;;14.32;3.95;;;;;;;;;;4902090;29;20559;-64
2023/07/12 04:27:46;;;;;;;11.32;3.58;;;;;;;;;;4901465;29;20036;-65
2023/07/12 04:30:13;;;;;;;13.82;3.75;;;;;;;;;;4901572;29;20040;-65
2023/07/12 04:32:40;;;;;;;14.13;3.75;;;;;;;;;;4901690;29;20054;-65
2023/07/12 04:35:06;;;;;;;12.70;3.60;;;;;;;;;;4900620;29;20027;-65
2023/07/12 04:37:32;;;;;;;11.20;3.08;;;;;;;;;;4901877;29;20118;-65
2023/07/12 04:39:58;;;;;;;11.45;3.60;;;;;;;;;;4901638;29;20043;-65
2023/07/12 04:42:24;;;;;;;16.95;4.20;;;;;;;;;;4902449;29;20162;-65
2023/07/12 04:44:50;;;;;;;11.15;3.35;;;;;;;;;;4901055;29;20040;-66
2023/07/12 04:47:17;;;;;;;10.75;3.78;;;;;;;;;;4902060;29;20036;-65
2023/07/12 04:49:43;;;;;;;12.77;3.83;;;;;;;;;;4901670;29;20509;-66
2023/07/12 04:52:11;;;;;;;12.35;3.83;;;;;;;;;;4900794;29;20029;-65
2023/07/12 04:54:39;;;;;;;17.92;4.25;;;;;;;;;;4901917;29;20029;-65
2023/07/12 04:57:05;;;;;;;13.82;3.58;;;;;;;;;;4901665;29;20028;-65
2023/07/12 04:59:32;;;;;;;13.15;3.83;;;;;;;;;;4901787;29;21089;-65
2023/07/12 05:01:58;;;;;;;11.38;4.03;;;;;;;;;;4900529;29;20037;-65
2023/07/12 05:04:24;;;;;;;11.25;4.07;;;;;;;;;;4900721;29;21592;-65
2023/07/12 05:06:51;;;;;;;11.75;3.67;;;;;;;;;;4901603;29;20036;-65
2023/07/12 05:09:18;;;;;;;13.52;4.22;;;;;;;;;;4900547;29;20043;-65
2023/07/12 05:11:44;;;;;;;11.90;4.35;;;;;;;;;;4901970;29;20032;-65
2023/07/12 05:14:10;;;;;;;13.15;4.38;;;;;;;;;;4901496;29;20035;-65
2023/07/12 05:16:36;;;;;;;13.68;4.85;;;;;;;;;;4901217;29;20391;-65
2023/07/12 05:19:03;;;;;;;14.55;4.97;;;;;;;;;;4899809;29;20941;-65
2023/07/12 05:21:29;;;;;;;15.10;4.00;;;;;;;;;;4900239;29;20039;-65
2023/07/12 05:23:55;;;;;;;15.43;4.85;;;;;;;;;;4903814;29;20059;-65
2023/07/12 05:26:21;;;;;;;11.75;4.60;;;;;;;;;;4903652;29;20388;-65
2023/07/12 05:28:48;;;;;;;15.45;4.45;;;;;;;;;;4903944;29;20150;-65
2023/07/12 05:31:14;;;;;;;10.88;4.38;;;;;;;;;;4902506;29;20114;-65
2023/07/12 05:33:43;;;;;;;16.45;4.80;;;;;;;;;;4903628;29;20132;-65
2023/07/12 05:36:09;;;;;;;16.05;4.97;;;;;;;;;;4904120;29;20672;-65
2023/07/12 05:38:36;;;;;;;11.70;4.10;;;;;;;;;;4903090;29;20032;-65
2023/07/12 05:41:02;;;;;;;13.65;4.43;;;;;;;;;;4903842;29;20503;-65
2023/07/12 05:43:28;;;;;;;10.70;3.85;;;;;;;;;;4904196;29;20067;-65
2023/07/12 05:45:57;;;;;;;15.40;4.35;;;;;;;;;;4903069;29;20067;-65
2023/07/12 05:48:24;;;;;;;11.98;4.07;;;;;;;;;;4903164;29;21462;-65
2023/07/12 05:50:54;;;;;;;14.07;3.55;;;;;;;;;;4903893;29;20064;-66
2023/07/12 05:53:20;;;;;;;13.75;4.00;;;;;;;;;;4903111;29;20028;-65
2023/07/12 05:55:46;;;;;;;14.82;3.90;;;;;;;;;;4904906;29;20063;-64
2023/07/12 05:58:12;;;;;;;15.15;3.92;;;;;;;;;;4903369;29;20043;-65
2023/07/12 06:00:38;;;;;;;15.55;3.33;;;;;;;;;;4904227;29;20032;-65
2023/07/12 06:03:05;;;;;;;13.80;3.97;;;;;;;;;;4903997;29;20051;-65
2023/07/12 06:05:31;;;;;;;12.13;4.25;;;;;;;;;;4903746;29;20531;-65
2023/07/12 06:07:57;;;;;;;16.02;4.10;;;;;;;;;;4904164;29;20480;-65
2023/07/12 06:10:24;;;;;;;12.02;3.45;;;;;;;;;;4901003;29;20064;-65
2023/07/12 06:12:50;;;;;;;15.98;4.18;;;;;;;;;;4892192;29;20036;-65
2023/07/12 06:15:16;;;;;;;17.17;4.20;;;;;;;;;;4903774;29;20077;-65
2023/07/12 06:17:43;;;;;;;15.60;4.45;;;;;;;;;;4903861;29;20040;-65
2023/07/12 06:20:09;;;;;;;12.80;4.28;;;;;;;;;;4903398;29;20079;-65
2023/07/12 06:22:36;;;;;;;17.23;4.13;;;;;;;;;;4903926;29;20196;-65
2023/07/12 06:25:03;;;;;;;18.00;3.90;;;;;;;;;;4903384;29;20047;-65
2023/07/12 06:27:29;;;;;;;19.38;4.22;;;;;;;;;;4902744;29;20043;-65
2023/07/12 06:29:55;;;;;;;13.50;4.35;;;;;;;;;;4904122;29;20047;-65
2023/07/12 06:32:21;;;;;;;15.13;4.45;;;;;;;;;;4904168;29;20071;-65
2023/07/12 06:34:48;;;;;;;12.15;3.83;;;;;;;;;;4902677;29;20079;-65
2023/07/12 06:37:14;;;;;;;12.23;3.70;;;;;;;;;;4904566;29;20043;-65
2023/07/12 06:39:40;;;;;;;12.50;3.90;;;;;;;;;;4904113;29;20036;-64
2023/07/12 06:42:06;;;;;;;14.75;4.25;;;;;;;;;;4899398;29;20341;-65
2023/07/12 06:44:33;;;;;;;12.85;4.03;;;;;;;;;;4893325;29;20040;-65
2023/07/12 06:46:59;;;;;;;14.40;4.43;;;;;;;;;;4894919;29;21916;-65
2023/07/12 06:49:25;;;;;;;16.85;4.70;;;;;;;;;;4895153;29;20981;-65
2023/07/12 06:51:51;;;;;;;16.70;4.15;;;;;;;;;;4894558;29;20032;-64
2023/07/12 06:54:17;;;;;;;13.23;4.40;;;;;;;;;;4896165;29;20087;-64
2023/07/12 06:56:45;;;;;;;14.43;4.30;;;;;;;;;;4895081;29;20051;-64
2023/07/12 06:59:11;;;;;;;14.70;4.88;;;;;;;;;;4894992;29;21077;-64
2023/07/12 07:01:37;;;;;;;11.02;4.28;;;;;;;;;;4895023;29;20200;-64
2023/07/12 07:04:04;;;;;;;16.48;3.67;;;;;;;;;;4896181;29;21024;-64
2023/07/12 07:06:30;;;;;;;15.23;4.03;;;;;;;;;;4894719;29;20040;-64
2023/07/12 07:08:56;;;;;;;14.15;3.90;;;;;;;;;;4894864;29;20108;-64
2023/07/12 07:11:22;;;;;;;13.82;3.47;;;;;;;;;;4895188;29;20044;-64
2023/07/12 07:13:50;;;;;;;11.75;3.08;;;;;;;;;;4896413;29;20032;-64
2023/07/12 07:16:16;;;;;;;14.50;3.47;;;;;;;;;;4896323;29;20036;-64
2023/07/12 07:18:42;;;;;;;12.77;3.25;;;;;;;;;;4896184;29;20083;-64
2023/07/12 07:21:08;;;;;;;13.05;3.63;;;;;;;;;;4896387;29;20047;-64
2023/07/12 07:23:34;;;;;;;12.98;3.45;;;;;;;;;;4896364;29;20039;-64
2023/07/12 07:26:05;;;;;;;19.92;4.07;;;;;;;;;;4894389;29;20040;-64
2023/07/12 07:28:31;;;;;;;12.38;3.95;;;;;;;;;;4895873;29;20036;-64
2023/07/12 07:31:00;;;;;;;12.43;3.20;;;;;;;;;;4895884;29;20060;-64
2023/07/12 07:33:26;;;;;;;14.82;3.63;;;;;;;;;;4895474;29;20187;-64
2023/07/12 07:35:52;;;;;;;16.70;4.13;;;;;;;;;;4895405;29;20042;-64
2023/07/12 07:38:18;;;;;;;16.55;3.58;;;;;;;;;;4895274;29;20483;-64
2023/07/12 07:40:44;;;;;;;15.18;4.15;;;;;;;;;;4895761;29;20023;-64
2023/07/12 07:43:11;;;;;;;12.98;3.13;;;;;;;;;;4894137;29;20036;-64
2023/07/12 07:45:37;;;;;;;13.95;3.00;;;;;;;;;;4894281;29;20079;-65
2023/07/12 07:48:03;;;;;;;12.57;3.55;;;;;;;;;;4893195;29;21356;-64
2023/07/12 07:50:30;;;;;;;10.52;3.25;;;;;;;;;;4893319;29;20134;-64
2023/07/12 07:52:56;;;;;;;10.38;3.40;;;;;;;;;;4893729;29;20688;-64
2023/07/12 07:55:22;;;;;;;18.48;3.97;;;;;;;;;;4893752;29;20076;-64
2023/07/12 07:57:48;;;;;;;12.00;4.05;;;;;;;;;;4893905;29;20047;-64
2023/07/12 08:00:15;;;;;;;11.15;4.13;;;;;;;;;;4892881;29;20036;-64
2023/07/12 08:02:45;;;;;;;10.80;2.83;;;;;;;;;;4895290;29;20785;-65
2023/07/12 08:05:12;;;;;;;11.82;3.00;;;;;;;;;;4893704;29;20063;-65
2023/07/12 08:07:42;;;;;;;9.40;2.50;;;;;;;;;;4895477;29;20035;-65
2023/07/12 08:10:09;;;;;;;11.60;2.67;;;;;;;;;;4895353;29;20032;-65
2023/07/12 08:12:35;;;;;;;17.55;3.00;;;;;;;;;;4894810;29;20135;-65
2023/07/12 08:15:01;;;;;;;12.38;3.15;;;;;;;;;;4895086;29;20040;-65
2023/07/12 08:17:28;;;;;;;9.13;2.65;;;;;;;;;;4895205;29;20576;-66
2023/07/12 08:19:54;;;;;;;8.85;2.00;;;;;;;;;;4896572;29;20705;-66
2023/07/12 08:22:20;;;;;;;6.43;1.90;;;;;;;;;;4895046;29;20040;-66
2023/07/12 08:24:46;;;;;;;10.45;2.13;;;;;;;;;;4895864;29;20228;-66
2023/07/12 08:27:13;;;;;;;9.82;2.22;;;;;;;;;;4895103;29;20036;-66
2023/07/12 08:29:43;;;;;;;7.50;2.20;;;;;;;;;;4895950;29;20198;-66
2023/07/12 08:32:09;;;;;;;10.02;2.42;;;;;;;;;;4896015;29;20119;-66
2023/07/12 08:34:35;;;;;;;10.43;2.58;;;;;;;;;;4892927;29;20033;-64
2023/07/12 08:37:01;;;;;;;9.77;2.40;;;;;;;;;;4894763;29;20123;-64
2023/07/12 08:39:27;;;;;;;10.98;3.00;;;;;;;;;;4877218;29;20503;-65
2023/07/12 08:41:54;;;;;;;9.63;3.30;;;;;;;;;;4894835;29;20150;-64
2023/07/12 08:44:20;;;;;;;11.25;3.38;;;;;;;;;;4893629;29;20047;-65
2023/07/12 08:46:57;;;;;;;8.63;2.90;;;;;;;;;;4893550;29;20120;-65
2023/07/12 08:49:23;;;;;;;12.20;3.47;;;;;;;;;;4894299;29;20050;-65
2023/07/12 08:51:50;;;;;;;7.78;2.85;;;;;;;;;;4893909;29;20069;-65
2023/07/12 08:54:33;;;;;;;9.05;3.10;;;;;;;;;;4893943;29;20035;-65
2023/07/12 08:57:20;;;;;;;14.25;3.58;;;;;;;;;;4890769;29;20486;-65
2023/07/12 09:00:07;;;;;;;16.75;4.57;;;;;;;;;;4898249;29;20032;-65
2023/07/12 09:02:33;;;;;;;11.60;3.50;;;;;;;;;;4896300;29;20063;-65
2023/07/12 09:05:09;;;;;;;10.55;3.90;;;;;;;;;;4897837;29;20044;-64
2023/07/12 09:07:36;;;;;;;11.98;2.90;;;;;;;;;;4897559;29;20028;-65
2023/07/12 09:10:02;;;;;;;8.57;2.67;;;;;;;;;;4897662;29;20115;-65
2023/07/12 09:12:30;;;;;;;12.55;3.55;;;;;;;;;;4897758;29;20036;-65
2023/07/12 09:15:03;;;;;;;9.15;3.85;;;;;;;;;;4897769;29;20103;-65
2023/07/12 09:17:32;;;;;;;11.65;2.60;;;;;;;;;;4897942;29;20054;-65
2023/07/12 09:19:58;;;;;;;11.70;2.83;;;;;;;;;;4898007;29;20047;-65
2023/07/12 09:22:24;;;;;;;7.93;2.47;;;;;;;;;;4898041;29;20092;-65
2023/07/12 09:24:52;;;;;;;10.43;2.78;;;;;;;;;;4896945;29;20082;-65
2023/07/12 09:27:20;;;;;;;12.10;2.80;;;;;;;;;;4899694;29;20031;-65
2023/07/12 09:29:46;;;;;;;10.27;3.05;;;;;;;;;;4899391;29;20707;-65
2023/07/12 09:32:17;;;;;;;11.20;2.80;;;;;;;;;;4901150;29;20052;-65
2023/07/12 09:34:45;;;;;;;8.93;2.85;;;;;;;;;;4883782;29;20031;-66
2023/07/12 09:37:14;;;;;;;8.98;2.22;;;;;;;;;;4899851;29;20036;-66
2023/07/12 09:39:40;;;;;;;10.63;2.75;;;;;;;;;;4898488;29;20027;-66
2023/07/12 09:42:09;;;;;;;9.63;2.85;;;;;;;;;;4899887;29;20048;-66
2023/07/12 09:44:35;;;;;;;11.93;2.42;;;;;;;;;;4900295;29;20740;-66
2023/07/12 09:47:06;;;;;;;10.10;2.90;;;;;;;;;;4899792;29;20043;-66
2023/07/12 09:49:44;;;;;;;9.30;2.15;;;;;;;;;;4899390;29;20035;-66
2023/07/12 09:52:17;;;;;;;10.63;2.13;;;;;;;;;;4898705;29;20782;-66
2023/07/12 09:54:52;;;;;;;10.43;2.58;;;;;;;;;;4899964;29;20036;-66
2023/07/12 09:57:37;;;;;;;6.97;1.95;;;;;;;;;;4899389;29;20027;-66
2023/07/12 10:00:03;;;;;;;6.95;2.05;;;;;;;;;;4898798;29;20032;-66
2023/07/12 10:02:44;;;;;;;6.00;2.35;;;;;;;;;;4897790;29;20035;-65
2023/07/12 10:05:18;;;;;;;6.13;1.92;;;;;;;;;;4898594;29;20033;-65
2023/07/12 10:07:56;;;;;;;5.53;1.85;;;;;;;;;;4898790;29;20040;-65
2023/07/12 10:10:25;;;;;;;6.60;1.80;;;;;;;;;;4898273;29;20046;-65
2023/07/12 10:13:06;;;;;;;5.47;1.75;;;;;;;;;;4898086;29;20028;-65
2023/07/12 10:15:33;;;;;;;5.78;1.67;;;;;;;;;;4896885;29;20025;-64
2023/07/12 10:18:00;;;;;;;7.38;1.80;;;;;;;;;;4897099;29;20035;-65
2023/07/12 10:20:26;;;;;;;12.90;2.63;;;;;;;;;;4896685;29;20042;-65
2023/07/12 10:22:54;;;;;;;7.05;2.00;;;;;;;;;;4896377;29;20573;-65
2023/07/12 10:25:20;;;;;;;6.22;1.63;;;;;;;;;;4896852;29;20150;-65
2023/07/12 10:27:48;;;;;;;5.85;1.65;;;;;;;;;;4897790;29;20074;-65
2023/07/12 10:30:17;;;;;;;7.22;1.80;;;;;;;;;;4898052;29;20028;-65
2023/07/12 10:32:48;;;;;;;5.68;1.70;;;;;;;;;;4897097;29;20051;-65
2023/07/12 10:35:27;;;;;;;4.63;1.75;;;;;;;;;;4897581;29;20043;-65
2023/07/12 10:37:54;;;;;;;6.15;1.70;;;;;;;;;;4903570;29;20035;-65
2023/07/12 10:40:23;;;;;;;5.22;1.70;;;;;;;;;;4904173;29;20102;-65
2023/07/12 10:42:53;;;;;;;8.93;1.83;;;;;;;;;;4903780;29;20507;-65
2023/07/12 10:45:24;;;;;;;7.03;1.58;;;;;;;;;;4903911;29;20028;-65
2023/07/12 10:47:51;;;;;;;4.88;1.70;;;;;;;;;;4904121;29;20499;-65
2023/07/12 10:50:25;;;;;;;7.63;1.70;;;;;;;;;;4903759;29;21425;-65
2023/07/12 10:52:54;;;;;;;7.10;2.17;;;;;;;;;;4903902;29;20036;-65
2023/07/12 10:55:41;;;;;;;7.05;1.80;;;;;;;;;;4903352;29;20044;-65
2023/07/12 10:58:19;;;;;;;8.02;1.73;;;;;;;;;;4903074;29;20388;-65
2023/07/12 11:00:50;;;;;;;5.60;1.60;;;;;;;;;;4904115;29;21793;-65
2023/07/12 11:03:18;;;;;;;3.92;1.50;;;;;;;;;;4901755;29;20020;-65
2023/07/12 11:06:00;;;;;;;4.70;1.33;;;;;;;;;;4902629;29;20074;-65
2023/07/12 11:08:32;;;;;;;8.38;1.92;;;;;;;;;;4903271;29;20042;-65
2023/07/12 11:11:02;;;;;;;4.85;1.30;;;;;;;;;;4903411;29;20072;-66
2023/07/12 11:13:30;;;;;;;5.15;1.25;;;;;;;;;;4901677;29;20087;-64
2023/07/12 11:16:02;;;;;;;6.15;1.60;;;;;;;;;;4900237;29;20027;-64
2023/07/12 11:18:52;;;;;;;2.92;1.15;;;;;;;;;;4901322;29;20028;-63
2023/07/12 11:21:36;;;;;;;3.58;0.88;;;;;;;;;;4903724;29;20377;-63
2023/07/12 11:24:20;;;;;;;4.53;1.17;;;;;;;;;;4906864;29;20054;-63
2023/07/12 11:26:53;;;;;;;5.72;1.20;;;;;;;;;;4907291;29;20055;-63
2023/07/12 11:29:22;;;;;;;6.97;1.40;;;;;;;;;;4907793;29;20039;-63
2023/07/12 11:31:50;;;;;;;6.80;1.30;;;;;;;;;;4908097;29;20044;-63
2023/07/12 11:34:19;;;;;;;4.75;0.90;;;;;;;;;;4907030;29;20505;-63
2023/07/12 11:36:49;;;;;;;5.57;1.00;;;;;;;;;;4907624;29;20059;-63
2023/07/12 11:39:20;;;;;;;3.42;1.00;;;;;;;;;;4906919;29;20051;-63
2023/07/12 11:41:56;;;;;;;2.88;0.70;;;;;;;;;;4908014;29;20114;-63
2023/07/12 11:44:25;;;;;;;4.43;0.65;;;;;;;;;;4907881;29;20028;-63
2023/07/12 11:46:51;;;;;;;3.13;1.05;;;;;;;;;;4907562;29;20043;-63
2023/07/12 11:49:20;;;;;;;3.60;1.02;;;;;;;;;;4907449;29;20074;-63
2023/07/12 11:51:47;;;;;;;2.65;0.65;;;;;;;;;;4907404;29;20694;-63
2023/07/12 11:54:18;;;;;;;3.85;0.95;;;;;;;;;;4907326;29;20039;-63
2023/07/12 11:56:44;;;;;;;6.70;1.33;;;;;;;;;;4907474;29;20035;-63
2023/07/12 11:59:15;;;;;;;3.83;0.90;;;;;;;;;;4903807;29;20039;-63
2023/07/12 12:01:42;;;;;;;1.55;0.82;;;;;;;;;;4900016;29;20078;-63
2023/07/12 12:04:08;;;;;;;6.78;1.15;;;;;;;;;;4900553;29;20047;-63
2023/07/12 12:06:35;;;;;;;3.90;0.80;;;;;;;;;;4900816;29;20044;-63
2023/07/12 12:09:01;;;;;;;2.78;0.85;;;;;;;;;;4900746;29;20039;-63
2023/07/12 12:11:28;;;;;;;5.35;0.88;;;;;;;;;;4902158;29;20038;-63
2023/07/12 12:13:54;;;;;;;3.30;0.80;;;;;;;;;;4906358;29;20039;-63
2023/07/12 12:16:28;;;;;;;4.65;0.98;;;;;;;;;;4906427;29;20040;-63
2023/07/12 12:18:58;;;;;;;3.80;0.90;;;;;;;;;;4906701;29;20134;-63
2023/07/12 12:21:25;;;;;;;3.65;0.60;;;;;;;;;;4906371;29;20118;-63
2023/07/12 12:23:52;;;;;;;2.45;0.60;;;;;;;;;;4906641;29;20118;-63
2023/07/12 12:26:19;;;;;;;5.20;1.10;;;;;;;;;;4906683;29;20044;-63
2023/07/12 12:28:50;;;;;;;6.22;1.10;;;;;;;;;;4907400;29;20036;-63
2023/07/12 12:31:19;;;;;;;5.30;1.35;;;;;;;;;;4905969;29;20040;-63
2023/07/12 12:33:47;;;;;;;3.15;0.80;;;;;;;;;;4904460;29;20032;-63
2023/07/12 12:36:19;;;;;;;3.63;0.82;;;;;;;;;;4902962;29;21294;-63
2023/07/12 12:42:18;;;;;;;3.25;0.70;;;;;;;;;;4822037;29;20049;-63
2023/07/12 12:44:44;;;;;;;3.00;0.50;;;;;;;;;;4863906;29;20041;-63
2023/07/12 12:47:18;;;;;;;2.53;0.57;;;;;;;;;;4884636;29;20056;-64
2023/07/12 12:49:44;;;;;;;3.00;0.70;;;;;;;;;;4905379;29;20118;-63
2023/07/12 12:52:30;;;;;;;4.65;0.70;;;;;;;;;;4903102;29;20028;-63
2023/07/12 12:55:00;;;;;;;2.75;0.63;;;;;;;;;;4905706;29;20028;-63
2023/07/12 12:57:30;;;;;;;4.95;1.20;;;;;;;;;;4905091;29;20032;-63
2023/07/12 12:59:56;;;;;;;3.08;0.68;;;;;;;;;;4905014;29;20452;-63
2023/07/12 13:02:22;;;;;;;3.65;0.73;;;;;;;;;;4906324;29;20039;-63
2023/07/12 13:04:48;;;;;;;4.80;0.75;;;;;;;;;;4906110;29;20039;-63
2023/07/12 13:07:19;;;;;;;2.40;0.75;;;;;;;;;;4906043;29;20193;-63
2023/07/12 13:09:45;;;;;;;3.28;0.55;;;;;;;;;;4903076;29;21038;-63
2023/07/12 13:12:16;;;;;;;3.00;0.85;;;;;;;;;;4903740;29;21935;-63
2023/07/12 13:14:42;;;;;;;3.00;0.80;;;;;;;;;;4905124;29;20059;-63
2023/07/12 13:17:16;;;;;;;4.60;0.80;;;;;;;;;;4905659;29;20056;-63
2023/07/12 13:19:42;;;;;;;3.72;0.65;;;;;;;;;;4904013;29;20629;-63
2023/07/12 13:22:12;;;;;;;5.28;0.50;;;;;;;;;;4906008;29;20031;-63
2023/07/12 13:24:38;;;;;;;3.83;0.82;;;;;;;;;;4904858;29;20042;-63
2023/07/12 13:27:09;;;;;;;2.55;0.73;;;;;;;;;;4905482;29;20072;-63
2023/07/12 13:29:35;;;;;;;2.95;0.60;;;;;;;;;;4906119;29;20119;-63
2023/07/12 13:32:01;;;;;;;2.35;0.70;;;;;;;;;;4906006;29;20048;-63
2023/07/12 13:34:27;;;;;;;2.75;0.63;;;;;;;;;;4906023;29;20036;-63
2023/07/12 13:36:53;;;;;;;3.00;0.70;;;;;;;;;;4906053;29;20055;-63
2023/07/12 13:39:21;;;;;;;3.00;0.90;;;;;;;;;;4906119;29;20436;-63
2023/07/12 13:41:49;;;;;;;5.25;1.00;;;;;;;;;;4905921;29;20036;-63
2023/07/12 13:44:15;;;;;;;4.10;1.05;;;;;;;;;;4906905;29;20034;-63
2023/07/12 13:46:42;;;;;;;3.30;0.57;;;;;;;;;;4908577;29;20031;-63
2023/07/12 13:49:15;;;;;;;5.70;0.77;;;;;;;;;;4909481;29;20151;-63
2023/07/12 13:51:41;;;;;;;;;;;;;;;;;;4909610;29;20083;-63
2023/07/12 13:54:08;;;;;;;3.17;0.65;;;;;;;;;;4909517;29;19923;-63
2023/07/12 13:56:34;;;;;;;3.40;0.68;;;;;;;;;;4909258;29;20082;-63
2023/07/12 13:59:00;;;;;;;2.42;1.02;;;;;;;;;;4892594;29;20048;-63
2023/07/12 14:01:26;;;;;;;4.15;0.73;;;;;;;;;;4905327;29;20047;-63
2023/07/12 14:03:53;;;;;;;6.40;1.10;;;;;;;;;;4909202;29;20038;-63
2023/07/12 14:06:19;;;;;;;2.95;0.93;;;;;;;;;;4909439;29;21059;-63
2023/07/12 14:08:45;;;;;;;3.97;0.90;;;;;;;;;;4906954;29;20638;-63
2023/07/12 14:11:18;;;;;;;3.00;0.70;;;;;;;;;;4909614;29;20764;-63
2023/07/12 14:13:44;;;;;;;;;;;;;;;;;;4910026;29;20028;-63
2023/07/12 14:16:10;;;;;;;3.38;0.80;;;;;;;;;;4908076;29;20014;-63
2023/07/12 14:18:36;;;;;;;2.58;0.60;;;;;;;;;;4909184;29;20064;-63
2023/07/12 14:21:03;;;;;;;3.38;0.95;;;;;;;;;;4908073;29;20091;-63
2023/07/12 14:23:29;;;;;;;3.80;0.82;;;;;;;;;;4908622;29;20530;-63
2023/07/12 14:25:55;;;;;;;3.28;0.73;;;;;;;;;;4908314;29;20038;-63
2023/07/12 14:28:21;;;;;;;4.85;1.00;;;;;;;;;;4908532;29;20028;-63
2023/07/12 14:30:47;;;;;;;3.05;0.88;;;;;;;;;;4908382;29;20048;-63
2023/07/12 14:33:36;;;;;;;3.45;0.80;;;;;;;;;;4908654;29;20032;-63
2023/07/12 14:36:03;;;;;;;2.15;0.80;;;;;;;;;;4908216;29;20033;-63
2023/07/12 14:38:29;;;;;;;2.08;0.80;;;;;;;;;;4908235;29;20617;-63
2023/07/12 14:40:55;;;;;;;1.70;0.73;;;;;;;;;;4907475;29;20459;-62
2023/07/12 14:43:21;;;;;;;5.22;1.33;;;;;;;;;;4907495;29;20323;-62
2023/07/12 14:45:49;;;;;;;4.20;1.42;;;;;;;;;;4907520;29;20031;-62